You are not logged in, Click here to log in
ICAO: RJFK Country: 日本鹿兒島縣霧島市
Latitude: 31.8029 Longitude: 130.718
Total Arrivals: 30 Total Departures: 28
Latest Arrival: 3KCI11 (RJOA-RJFK)Jason. Li Latest Departure: GK694 (RJFK-RJGG)Jason. Li
Scenery:
METAR : RJFK 241100Z 25003KT 220V280 CAVOK 23/10 Q1015

鹿児島空港KOJ